sensor_id;sensor_type;location;lat;lon;timestamp;temperature;humidity
24682;DHT22;12802;53.390;-2.328;2022-07-10T00:01:52;16.80;99.90
24682;DHT22;12802;53.390;-2.328;2022-07-10T00:04:18;16.90;99.90
24682;DHT22;12802;53.390;-2.328;2022-07-10T00:06:46;16.90;99.90
24682;DHT22;12802;53.390;-2.328;2022-07-10T00:09:15;16.90;99.90
24682;DHT22;12802;53.390;-2.328;2022-07-10T00:11:41;16.90;99.90
24682;DHT22;12802;53.390;-2.328;2022-07-10T00:14:07;17.00;99.90
24682;DHT22;12802;53.390;-2.328;2022-07-10T00:16:33;16.90;99.90
24682;DHT22;12802;53.390;-2.328;2022-07-10T00:19:00;16.90;99.90
24682;DHT22;12802;53.390;-2.328;2022-07-10T00:21:26;16.90;99.90
24682;DHT22;12802;53.390;-2.328;2022-07-10T00:23:52;16.90;99.90
24682;DHT22;12802;53.390;-2.328;2022-07-10T00:26:18;16.80;99.90
24682;DHT22;12802;53.390;-2.328;2022-07-10T00:28:44;16.80;99.90
24682;DHT22;12802;53.390;-2.328;2022-07-10T00:31:09;16.80;99.90
24682;DHT22;12802;53.390;-2.328;2022-07-10T00:33:37;16.70;99.90
24682;DHT22;12802;53.390;-2.328;2022-07-10T00:36:04;16.70;99.90
24682;DHT22;12802;53.390;-2.328;2022-07-10T00:38:30;16.70;99.90
24682;DHT22;12802;53.390;-2.328;2022-07-10T00:40:57;16.70;99.90
24682;DHT22;12802;53.390;-2.328;2022-07-10T00:43:22;16.70;99.90
24682;DHT22;12802;53.390;-2.328;2022-07-10T00:45:49;16.70;99.90
24682;DHT22;12802;53.390;-2.328;2022-07-10T00:48:15;16.70;99.90
24682;DHT22;12802;53.390;-2.328;2022-07-10T00:50:43;16.60;99.90
24682;DHT22;12802;53.390;-2.328;2022-07-10T00:53:10;16.60;99.90
24682;DHT22;12802;53.390;-2.328;2022-07-10T00:55:36;16.60;99.90
24682;DHT22;12802;53.390;-2.328;2022-07-10T00:58:06;16.60;99.90
24682;DHT22;12802;53.390;-2.328;2022-07-10T01:00:32;16.60;99.90
24682;DHT22;12802;53.390;-2.328;2022-07-10T01:02:59;16.70;99.90
24682;DHT22;12802;53.390;-2.328;2022-07-10T01:05:24;16.70;99.90
24682;DHT22;12802;53.390;-2.328;2022-07-10T01:07:50;16.70;99.90
24682;DHT22;12802;53.390;-2.328;2022-07-10T01:10:16;16.70;99.90
24682;DHT22;12802;53.390;-2.328;2022-07-10T01:12:42;16.70;99.90
24682;DHT22;12802;53.390;-2.328;2022-07-10T01:15:09;16.70;99.90
24682;DHT22;12802;53.390;-2.328;2022-07-10T01:17:35;16.70;99.90
24682;DHT22;12802;53.390;-2.328;2022-07-10T01:20:08;16.60;99.90
24682;DHT22;12802;53.390;-2.328;2022-07-10T01:22:36;16.60;99.90
24682;DHT22;12802;53.390;-2.328;2022-07-10T01:25:02;16.60;99.90
24682;DHT22;12802;53.390;-2.328;2022-07-10T01:27:28;16.60;99.90
24682;DHT22;12802;53.390;-2.328;2022-07-10T01:29:54;16.60;99.90
24682;DHT22;12802;53.390;-2.328;2022-07-10T01:32:20;16.60;99.90
24682;DHT22;12802;53.390;-2.328;2022-07-10T01:34:46;16.60;99.90
24682;DHT22;12802;53.390;-2.328;2022-07-10T01:37:13;16.50;99.90
24682;DHT22;12802;53.390;-2.328;2022-07-10T01:39:39;16.50;99.90
24682;DHT22;12802;53.390;-2.328;2022-07-10T01:42:05;16.50;99.90
24682;DHT22;12802;53.390;-2.328;2022-07-10T01:44:31;16.50;99.90
24682;DHT22;12802;53.390;-2.328;2022-07-10T01:46:57;16.50;99.90
24682;DHT22;12802;53.390;-2.328;2022-07-10T01:49:22;16.50;99.90
24682;DHT22;12802;53.390;-2.328;2022-07-10T01:51:48;16.50;99.90
24682;DHT22;12802;53.390;-2.328;2022-07-10T01:54:14;16.50;99.90
24682;DHT22;12802;53.390;-2.328;2022-07-10T01:56:40;16.40;99.90
24682;DHT22;12802;53.390;-2.328;2022-07-10T01:59:06;16.40;99.90
24682;DHT22;12802;53.390;-2.328;2022-07-10T02:01:32;16.40;99.90
24682;DHT22;12802;53.390;-2.328;2022-07-10T02:03:58;16.30;99.90
24682;DHT22;12802;53.390;-2.328;2022-07-10T02:06:42;16.30;99.90
24682;DHT22;12802;53.390;-2.328;2022-07-10T02:09:08;16.30;99.90
24682;DHT22;12802;53.390;-2.328;2022-07-10T02:11:34;16.40;99.90
24682;DHT22;12802;53.390;-2.328;2022-07-10T02:14:00;16.40;99.90
24682;DHT22;12802;53.390;-2.328;2022-07-10T02:16:25;16.40;99.90
24682;DHT22;12802;53.390;-2.328;2022-07-10T02:18:51;16.40;99.90
24682;DHT22;12802;53.390;-2.328;2022-07-10T02:21:17;16.40;99.90
24682;DHT22;12802;53.390;-2.328;2022-07-10T02:23:43;16.40;99.90
24682;DHT22;12802;53.390;-2.328;2022-07-10T02:26:08;16.40;99.90
24682;DHT22;12802;53.390;-2.328;2022-07-10T02:28:34;16.40;99.90
24682;DHT22;12802;53.390;-2.328;2022-07-10T02:31:00;16.30;99.90
24682;DHT22;12802;53.390;-2.328;2022-07-10T02:33:26;16.30;99.90
24682;DHT22;12802;53.390;-2.328;2022-07-10T02:35:52;16.40;99.90
24682;DHT22;12802;53.390;-2.328;2022-07-10T02:38:17;16.40;99.90
24682;DHT22;12802;53.390;-2.328;2022-07-10T02:40:44;16.30;99.90
24682;DHT22;12802;53.390;-2.328;2022-07-10T02:43:09;16.40;99.90
24682;DHT22;12802;53.390;-2.328;2022-07-10T02:45:35;16.40;99.90
24682;DHT22;12802;53.390;-2.328;2022-07-10T02:48:01;16.30;99.90
24682;DHT22;12802;53.390;-2.328;2022-07-10T02:50:27;16.30;99.90
24682;DHT22;12802;53.390;-2.328;2022-07-10T02:52:53;16.30;99.90
24682;DHT22;12802;53.390;-2.328;2022-07-10T02:55:18;16.30;99.90
24682;DHT22;12802;53.390;-2.328;2022-07-10T02:57:44;16.30;99.90
24682;DHT22;12802;53.390;-2.328;2022-07-10T03:00:10;16.20;99.90
24682;DHT22;12802;53.390;-2.328;2022-07-10T03:02:37;16.40;99.90
24682;DHT22;12802;53.390;-2.328;2022-07-10T03:05:03;16.40;99.90
24682;DHT22;12802;53.390;-2.328;2022-07-10T03:07:28;16.40;99.90
24682;DHT22;12802;53.390;-2.328;2022-07-10T03:09:54;16.40;99.90
24682;DHT22;12802;53.390;-2.328;2022-07-10T03:12:20;16.40;99.90
24682;DHT22;12802;53.390;-2.328;2022-07-10T03:14:46;16.30;99.90
24682;DHT22;12802;53.390;-2.328;2022-07-10T03:17:11;16.40;99.90
24682;DHT22;12802;53.390;-2.328;2022-07-10T03:19:37;16.30;99.90
24682;DHT22;12802;53.390;-2.328;2022-07-10T03:22:03;16.30;99.90
24682;DHT22;12802;53.390;-2.328;2022-07-10T03:24:29;16.40;99.90
24682;DHT22;12802;53.390;-2.328;2022-07-10T03:26:55;16.30;99.90
24682;DHT22;12802;53.390;-2.328;2022-07-10T03:29:21;16.40;99.90
24682;DHT22;12802;53.390;-2.328;2022-07-10T03:31:47;16.40;99.90
24682;DHT22;12802;53.390;-2.328;2022-07-10T03:34:12;16.40;99.90
24682;DHT22;12802;53.390;-2.328;2022-07-10T03:36:38;16.40;99.90
24682;DHT22;12802;53.390;-2.328;2022-07-10T03:39:05;16.40;99.90
24682;DHT22;12802;53.390;-2.328;2022-07-10T03:41:30;16.40;99.90
24682;DHT22;12802;53.390;-2.328;2022-07-10T03:43:56;16.40;99.90
24682;DHT22;12802;53.390;-2.328;2022-07-10T03:46:22;16.30;99.90
24682;DHT22;12802;53.390;-2.328;2022-07-10T03:48:47;16.30;99.90
24682;DHT22;12802;53.390;-2.328;2022-07-10T03:51:13;16.30;99.90
24682;DHT22;12802;53.390;-2.328;2022-07-10T03:53:39;16.30;99.90
24682;DHT22;12802;53.390;-2.328;2022-07-10T03:56:05;16.30;99.90
24682;DHT22;12802;53.390;-2.328;2022-07-10T03:58:31;16.30;99.90
24682;DHT22;12802;53.390;-2.328;2022-07-10T04:00:57;16.30;99.90
24682;DHT22;12802;53.390;-2.328;2022-07-10T04:03:23;16.30;99.90
24682;DHT22;12802;53.390;-2.328;2022-07-10T04:05:49;16.30;99.90
24682;DHT22;12802;53.390;-2.328;2022-07-10T04:08:15;16.30;99.90
24682;DHT22;12802;53.390;-2.328;2022-07-10T04:10:40;16.30;99.90
24682;DHT22;12802;53.390;-2.328;2022-07-10T04:13:06;16.30;99.90
24682;DHT22;12802;53.390;-2.328;2022-07-10T04:15:32;16.30;99.90
24682;DHT22;12802;53.390;-2.328;2022-07-10T04:17:58;16.30;99.90
24682;DHT22;12802;53.390;-2.328;2022-07-10T04:20:24;16.30;99.90
24682;DHT22;12802;53.390;-2.328;2022-07-10T04:22:50;16.30;99.90
24682;DHT22;12802;53.390;-2.328;2022-07-10T04:25:16;16.30;99.90
24682;DHT22;12802;53.390;-2.328;2022-07-10T04:27:42;16.30;99.90
24682;DHT22;12802;53.390;-2.328;2022-07-10T04:30:08;16.20;99.90
24682;DHT22;12802;53.390;-2.328;2022-07-10T04:32:34;16.20;99.90
24682;DHT22;12802;53.390;-2.328;2022-07-10T04:35:00;16.30;99.90
24682;DHT22;12802;53.390;-2.328;2022-07-10T04:37:28;16.20;99.90
24682;DHT22;12802;53.390;-2.328;2022-07-10T04:39:54;16.20;99.90
24682;DHT22;12802;53.390;-2.328;2022-07-10T04:42:20;16.20;99.90
24682;DHT22;12802;53.390;-2.328;2022-07-10T04:44:46;16.20;99.90
24682;DHT22;12802;53.390;-2.328;2022-07-10T04:47:12;16.10;99.90
24682;DHT22;12802;53.390;-2.328;2022-07-10T04:49:38;16.00;99.90
24682;DHT22;12802;53.390;-2.328;2022-07-10T04:52:04;16.00;99.90
24682;DHT22;12802;53.390;-2.328;2022-07-10T04:54:30;16.10;99.90
24682;DHT22;12802;53.390;-2.328;2022-07-10T04:56:56;16.20;99.90
24682;DHT22;12802;53.390;-2.328;2022-07-10T04:59:21;16.20;99.90
24682;DHT22;12802;53.390;-2.328;2022-07-10T05:01:47;16.20;99.90
24682;DHT22;12802;53.390;-2.328;2022-07-10T05:04:13;16.20;99.90
24682;DHT22;12802;53.390;-2.328;2022-07-10T05:06:39;16.20;99.90
24682;DHT22;12802;53.390;-2.328;2022-07-10T05:09:04;16.20;99.90
24682;DHT22;12802;53.390;-2.328;2022-07-10T05:11:30;16.20;99.90
24682;DHT22;12802;53.390;-2.328;2022-07-10T05:13:57;16.20;99.90
24682;DHT22;12802;53.390;-2.328;2022-07-10T05:16:23;16.20;99.90
24682;DHT22;12802;53.390;-2.328;2022-07-10T05:18:49;16.20;99.90
24682;DHT22;12802;53.390;-2.328;2022-07-10T05:21:14;16.20;99.90
24682;DHT22;12802;53.390;-2.328;2022-07-10T05:23:40;16.20;99.90
24682;DHT22;12802;53.390;-2.328;2022-07-10T05:26:06;16.20;99.90
24682;DHT22;12802;53.390;-2.328;2022-07-10T05:28:32;16.20;99.90
24682;DHT22;12802;53.390;-2.328;2022-07-10T05:30:58;16.30;99.90
24682;DHT22;12802;53.390;-2.328;2022-07-10T05:33:24;16.40;99.90
24682;DHT22;12802;53.390;-2.328;2022-07-10T05:35:52;16.30;99.90
24682;DHT22;12802;53.390;-2.328;2022-07-10T05:38:18;16.30;99.90
24682;DHT22;12802;53.390;-2.328;2022-07-10T05:40:43;16.30;99.90
24682;DHT22;12802;53.390;-2.328;2022-07-10T05:43:09;16.30;99.90
24682;DHT22;12802;53.390;-2.328;2022-07-10T05:45:37;16.30;99.90
24682;DHT22;12802;53.390;-2.328;2022-07-10T05:48:03;16.30;99.90
24682;DHT22;12802;53.390;-2.328;2022-07-10T05:50:29;16.30;99.90
24682;DHT22;12802;53.390;-2.328;2022-07-10T05:52:56;16.30;99.90
24682;DHT22;12802;53.390;-2.328;2022-07-10T05:55:22;16.30;99.90
24682;DHT22;12802;53.390;-2.328;2022-07-10T05:57:47;16.30;99.90
24682;DHT22;12802;53.390;-2.328;2022-07-10T06:00:13;16.30;99.90
24682;DHT22;12802;53.390;-2.328;2022-07-10T06:02:40;16.20;99.90
24682;DHT22;12802;53.390;-2.328;2022-07-10T06:05:07;16.30;99.90
24682;DHT22;12802;53.390;-2.328;2022-07-10T06:07:33;16.30;99.90
24682;DHT22;12802;53.390;-2.328;2022-07-10T06:10:00;16.30;99.90
24682;DHT22;12802;53.390;-2.328;2022-07-10T06:12:25;16.30;99.90
24682;DHT22;12802;53.390;-2.328;2022-07-10T06:14:51;16.20;99.90
24682;DHT22;12802;53.390;-2.328;2022-07-10T06:17:17;16.30;99.90
24682;DHT22;12802;53.390;-2.328;2022-07-10T06:19:43;16.30;99.90
24682;DHT22;12802;53.390;-2.328;2022-07-10T06:22:09;16.30;99.90
24682;DHT22;12802;53.390;-2.328;2022-07-10T06:24:53;16.20;99.90
24682;DHT22;12802;53.390;-2.328;2022-07-10T06:27:19;16.20;99.90
24682;DHT22;12802;53.390;-2.328;2022-07-10T06:29:45;16.20;99.90
24682;DHT22;12802;53.390;-2.328;2022-07-10T06:32:11;16.30;99.90
24682;DHT22;12802;53.390;-2.328;2022-07-10T06:34:37;16.30;99.90
24682;DHT22;12802;53.390;-2.328;2022-07-10T06:37:03;16.40;99.90
24682;DHT22;12802;53.390;-2.328;2022-07-10T06:39:32;16.50;99.90
24682;DHT22;12802;53.390;-2.328;2022-07-10T06:42:04;16.50;99.90
24682;DHT22;12802;53.390;-2.328;2022-07-10T06:44:37;16.40;99.90
24682;DHT22;12802;53.390;-2.328;2022-07-10T06:47:03;16.40;99.90
24682;DHT22;12802;53.390;-2.328;2022-07-10T06:49:48;16.40;99.90
24682;DHT22;12802;53.390;-2.328;2022-07-10T06:52:15;16.40;99.90
24682;DHT22;12802;53.390;-2.328;2022-07-10T06:54:41;16.30;99.90
24682;DHT22;12802;53.390;-2.328;2022-07-10T06:57:08;16.20;99.90
24682;DHT22;12802;53.390;-2.328;2022-07-10T06:59:34;16.10;99.90
24682;DHT22;12802;53.390;-2.328;2022-07-10T07:02:00;16.20;99.90
24682;DHT22;12802;53.390;-2.328;2022-07-10T07:04:26;16.30;99.90
24682;DHT22;12802;53.390;-2.328;2022-07-10T07:06:51;16.40;99.90
24682;DHT22;12802;53.390;-2.328;2022-07-10T07:09:17;16.40;99.90
24682;DHT22;12802;53.390;-2.328;2022-07-10T07:11:43;16.40;99.90
24682;DHT22;12802;53.390;-2.328;2022-07-10T07:14:09;16.50;99.90
24682;DHT22;12802;53.390;-2.328;2022-07-10T07:16:34;16.50;99.90
24682;DHT22;12802;53.390;-2.328;2022-07-10T07:19:05;16.50;99.90
24682;DHT22;12802;53.390;-2.328;2022-07-10T07:21:32;16.50;99.90
24682;DHT22;12802;53.390;-2.328;2022-07-10T07:24:27;16.40;99.90
24682;DHT22;12802;53.390;-2.328;2022-07-10T07:26:53;16.40;99.90
24682;DHT22;12802;53.390;-2.328;2022-07-10T07:29:19;16.40;99.90
24682;DHT22;12802;53.390;-2.328;2022-07-10T07:31:45;16.40;99.90
24682;DHT22;12802;53.390;-2.328;2022-07-10T07:34:10;16.50;99.90
24682;DHT22;12802;53.390;-2.328;2022-07-10T07:36:37;16.50;99.90
24682;DHT22;12802;53.390;-2.328;2022-07-10T07:39:03;16.50;99.90
24682;DHT22;12802;53.390;-2.328;2022-07-10T07:41:29;16.60;99.90
24682;DHT22;12802;53.390;-2.328;2022-07-10T07:43:55;16.60;99.90
24682;DHT22;12802;53.390;-2.328;2022-07-10T07:46:21;16.70;99.90
24682;DHT22;12802;53.390;-2.328;2022-07-10T07:48:47;16.80;99.90
24682;DHT22;12802;53.390;-2.328;2022-07-10T07:51:13;16.80;99.90
24682;DHT22;12802;53.390;-2.328;2022-07-10T07:53:39;16.80;99.90
24682;DHT22;12802;53.390;-2.328;2022-07-10T07:56:05;16.90;99.90
24682;DHT22;12802;53.390;-2.328;2022-07-10T07:58:31;16.90;99.90
24682;DHT22;12802;53.390;-2.328;2022-07-10T08:00:58;16.90;99.90
24682;DHT22;12802;53.390;-2.328;2022-07-10T08:03:24;17.00;99.90
24682;DHT22;12802;53.390;-2.328;2022-07-10T08:05:50;17.00;99.90
24682;DHT22;12802;53.390;-2.328;2022-07-10T08:08:16;17.10;99.90
24682;DHT22;12802;53.390;-2.328;2022-07-10T08:10:42;17.20;99.90
24682;DHT22;12802;53.390;-2.328;2022-07-10T08:13:11;17.30;99.90
24682;DHT22;12802;53.390;-2.328;2022-07-10T08:15:37;17.40;99.90
24682;DHT22;12802;53.390;-2.328;2022-07-10T08:18:03;17.30;99.90
24682;DHT22;12802;53.390;-2.328;2022-07-10T08:20:30;17.40;99.90
24682;DHT22;12802;53.390;-2.328;2022-07-10T08:22:57;17.40;99.90
24682;DHT22;12802;53.390;-2.328;2022-07-10T08:25:23;17.40;99.90
24682;DHT22;12802;53.390;-2.328;2022-07-10T08:27:49;17.50;99.90
24682;DHT22;12802;53.390;-2.328;2022-07-10T08:30:15;17.50;99.90
24682;DHT22;12802;53.390;-2.328;2022-07-10T08:32:42;17.60;99.90
24682;DHT22;12802;53.390;-2.328;2022-07-10T08:35:08;17.60;99.90
24682;DHT22;12802;53.390;-2.328;2022-07-10T08:37:42;17.60;99.90
24682;DHT22;12802;53.390;-2.328;2022-07-10T08:40:11;17.80;99.90
24682;DHT22;12802;53.390;-2.328;2022-07-10T08:42:38;17.80;99.90
24682;DHT22;12802;53.390;-2.328;2022-07-10T08:45:05;17.80;99.90
24682;DHT22;12802;53.390;-2.328;2022-07-10T08:47:34;17.90;99.90
24682;DHT22;12802;53.390;-2.328;2022-07-10T08:50:00;17.90;99.90
24682;DHT22;12802;53.390;-2.328;2022-07-10T08:52:37;17.90;99.90
24682;DHT22;12802;53.390;-2.328;2022-07-10T08:55:07;18.00;99.90
24682;DHT22;12802;53.390;-2.328;2022-07-10T08:57:34;18.20;99.90
24682;DHT22;12802;53.390;-2.328;2022-07-10T09:00:01;18.40;99.90
24682;DHT22;12802;53.390;-2.328;2022-07-10T09:02:27;18.40;99.90
24682;DHT22;12802;53.390;-2.328;2022-07-10T09:04:53;18.50;99.90
24682;DHT22;12802;53.390;-2.328;2022-07-10T09:07:19;18.50;99.90
24682;DHT22;12802;53.390;-2.328;2022-07-10T09:12:20;18.70;99.90
24682;DHT22;12802;53.390;-2.328;2022-07-10T09:14:46;18.70;99.90
24682;DHT22;12802;53.390;-2.328;2022-07-10T09:17:12;18.70;99.90
24682;DHT22;12802;53.390;-2.328;2022-07-10T09:19:39;18.70;99.90
24682;DHT22;12802;53.390;-2.328;2022-07-10T09:22:07;18.80;99.90
24682;DHT22;12802;53.390;-2.328;2022-07-10T09:24:38;18.90;99.90
24682;DHT22;12802;53.390;-2.328;2022-07-10T09:27:04;19.00;99.90
24682;DHT22;12802;53.390;-2.328;2022-07-10T09:29:30;19.00;99.90
24682;DHT22;12802;53.390;-2.328;2022-07-10T09:32:01;19.20;99.90
24682;DHT22;12802;53.390;-2.328;2022-07-10T09:34:44;19.30;99.90
24682;DHT22;12802;53.390;-2.328;2022-07-10T09:37:25;19.40;99.90
24682;DHT22;12802;53.390;-2.328;2022-07-10T09:39:54;19.50;99.90
24682;DHT22;12802;53.390;-2.328;2022-07-10T09:47:55;19.80;99.90
24682;DHT22;12802;53.390;-2.328;2022-07-10T09:52:58;20.00;99.90
24682;DHT22;12802;53.390;-2.328;2022-07-10T09:55:27;20.10;99.90
24682;DHT22;12802;53.390;-2.328;2022-07-10T10:00:27;20.40;99.90
24682;DHT22;12802;53.390;-2.328;2022-07-10T10:02:58;20.40;99.90
24682;DHT22;12802;53.390;-2.328;2022-07-10T10:05:30;20.60;99.90
24682;DHT22;12802;53.390;-2.328;2022-07-10T10:08:43;20.80;99.90
24682;DHT22;12802;53.390;-2.328;2022-07-10T10:10:50;21.10;99.90
24682;DHT22;12802;53.390;-2.328;2022-07-10T10:13:20;21.20;99.90
24682;DHT22;12802;53.390;-2.328;2022-07-10T10:15:50;21.20;99.90
24682;DHT22;12802;53.390;-2.328;2022-07-10T10:18:24;21.20;99.90
24682;DHT22;12802;53.390;-2.328;2022-07-10T10:20:51;21.30;99.90
24682;DHT22;12802;53.390;-2.328;2022-07-10T10:23:20;21.40;99.90
24682;DHT22;12802;53.390;-2.328;2022-07-10T10:25:47;21.50;99.90
24682;DHT22;12802;53.390;-2.328;2022-07-10T10:28:14;21.60;99.90
24682;DHT22;12802;53.390;-2.328;2022-07-10T10:30:45;21.80;99.90
24682;DHT22;12802;53.390;-2.328;2022-07-10T10:35:56;21.80;99.90
24682;DHT22;12802;53.390;-2.328;2022-07-10T10:38:21;22.00;99.90
24682;DHT22;12802;53.390;-2.328;2022-07-10T10:40:48;22.10;99.90
24682;DHT22;12802;53.390;-2.328;2022-07-10T10:43:21;22.30;99.90
24682;DHT22;12802;53.390;-2.328;2022-07-10T10:45:47;22.40;99.90
24682;DHT22;12802;53.390;-2.328;2022-07-10T10:48:15;22.50;99.90
24682;DHT22;12802;53.390;-2.328;2022-07-10T10:50:42;22.60;99.90
24682;DHT22;12802;53.390;-2.328;2022-07-10T10:53:14;22.70;99.90
24682;DHT22;12802;53.390;-2.328;2022-07-10T10:56:20;22.90;99.90
24682;DHT22;12802;53.390;-2.328;2022-07-10T10:58:28;22.90;99.90
24682;DHT22;12802;53.390;-2.328;2022-07-10T11:01:29;23.00;99.90
24682;DHT22;12802;53.390;-2.328;2022-07-10T11:12:10;23.50;99.90
24682;DHT22;12802;53.390;-2.328;2022-07-10T11:14:40;23.70;99.90
24682;DHT22;12802;53.390;-2.328;2022-07-10T11:17:08;23.70;99.90
24682;DHT22;12802;53.390;-2.328;2022-07-10T11:19:34;23.90;99.90
24682;DHT22;12802;53.390;-2.328;2022-07-10T11:27:36;24.00;99.90
24682;DHT22;12802;53.390;-2.328;2022-07-10T11:30:07;24.30;99.90
24682;DHT22;12802;53.390;-2.328;2022-07-10T11:32:33;24.30;99.90
24682;DHT22;12802;53.390;-2.328;2022-07-10T11:35:00;24.20;99.90
24682;DHT22;12802;53.390;-2.328;2022-07-10T11:37:25;24.40;99.90
24682;DHT22;12802;53.390;-2.328;2022-07-10T11:40:11;24.90;99.90
24682;DHT22;12802;53.390;-2.328;2022-07-10T11:42:52;24.90;99.90
24682;DHT22;12802;53.390;-2.328;2022-07-10T11:45:29;24.90;99.90
24682;DHT22;12802;53.390;-2.328;2022-07-10T11:47:57;24.90;99.90
24682;DHT22;12802;53.390;-2.328;2022-07-10T11:50:25;24.80;99.90
24682;DHT22;12802;53.390;-2.328;2022-07-10T11:52:53;25.00;99.90
24682;DHT22;12802;53.390;-2.328;2022-07-10T11:55:21;25.00;99.90
24682;DHT22;12802;53.390;-2.328;2022-07-10T11:57:47;24.90;99.90
24682;DHT22;12802;53.390;-2.328;2022-07-10T12:00:27;25.10;99.90
24682;DHT22;12802;53.390;-2.328;2022-07-10T12:02:54;25.20;99.90
24682;DHT22;12802;53.390;-2.328;2022-07-10T12:05:37;25.20;99.90
24682;DHT22;12802;53.390;-2.328;2022-07-10T12:08:04;25.30;99.90
24682;DHT22;12802;53.390;-2.328;2022-07-10T12:10:31;25.30;99.90
24682;DHT22;12802;53.390;-2.328;2022-07-10T12:13:14;25.30;99.90
24682;DHT22;12802;53.390;-2.328;2022-07-10T12:15:45;25.30;99.90
24682;DHT22;12802;53.390;-2.328;2022-07-10T12:18:20;25.10;99.90
24682;DHT22;12802;53.390;-2.328;2022-07-10T12:20:49;25.10;99.90
24682;DHT22;12802;53.390;-2.328;2022-07-10T12:23:18;25.40;99.90
24682;DHT22;12802;53.390;-2.328;2022-07-10T12:25:46;25.70;99.90
24682;DHT22;12802;53.390;-2.328;2022-07-10T12:28:14;25.80;99.90
24682;DHT22;12802;53.390;-2.328;2022-07-10T12:30:47;25.50;99.90
24682;DHT22;12802;53.390;-2.328;2022-07-10T12:33:19;25.40;99.90
24682;DHT22;12802;53.390;-2.328;2022-07-10T12:35:55;25.90;99.90
24682;DHT22;12802;53.390;-2.328;2022-07-10T12:38:26;26.10;99.90
24682;DHT22;12802;53.390;-2.328;2022-07-10T12:41:12;26.20;99.90
24682;DHT22;12802;53.390;-2.328;2022-07-10T12:43:39;26.50;99.90
24682;DHT22;12802;53.390;-2.328;2022-07-10T12:48:38;26.90;99.90
24682;DHT22;12802;53.390;-2.328;2022-07-10T12:51:29;26.70;99.90
24682;DHT22;12802;53.390;-2.328;2022-07-10T12:53:55;26.90;99.90
24682;DHT22;12802;53.390;-2.328;2022-07-10T12:59:00;27.00;99.90
24682;DHT22;12802;53.390;-2.328;2022-07-10T13:01:38;27.20;99.90
24682;DHT22;12802;53.390;-2.328;2022-07-10T13:04:04;27.10;99.90
24682;DHT22;12802;53.390;-2.328;2022-07-10T13:06:32;26.90;99.90
24682;DHT22;12802;53.390;-2.328;2022-07-10T13:08:58;26.80;99.90
24682;DHT22;12802;53.390;-2.328;2022-07-10T13:11:24;26.70;99.90
24682;DHT22;12802;53.390;-2.328;2022-07-10T13:13:51;26.60;99.90
24682;DHT22;12802;53.390;-2.328;2022-07-10T13:16:17;26.50;99.90
24682;DHT22;12802;53.390;-2.328;2022-07-10T13:18:43;26.60;99.90
24682;DHT22;12802;53.390;-2.328;2022-07-10T13:21:12;26.60;99.90
24682;DHT22;12802;53.390;-2.328;2022-07-10T13:23:38;26.50;99.90
24682;DHT22;12802;53.390;-2.328;2022-07-10T13:26:05;26.50;99.90
24682;DHT22;12802;53.390;-2.328;2022-07-10T13:28:33;26.60;99.90
24682;DHT22;12802;53.390;-2.328;2022-07-10T13:30:59;26.90;99.90
24682;DHT22;12802;53.390;-2.328;2022-07-10T13:33:25;27.20;99.90
24682;DHT22;12802;53.390;-2.328;2022-07-10T13:35:53;27.30;99.90
24682;DHT22;12802;53.390;-2.328;2022-07-10T13:38:19;27.60;99.90
24682;DHT22;12802;53.390;-2.328;2022-07-10T13:40:46;27.60;99.90
24682;DHT22;12802;53.390;-2.328;2022-07-10T13:43:13;27.60;99.90
24682;DHT22;12802;53.390;-2.328;2022-07-10T13:45:42;27.90;99.90
24682;DHT22;12802;53.390;-2.328;2022-07-10T13:48:15;28.20;99.90
24682;DHT22;12802;53.390;-2.328;2022-07-10T13:50:43;28.60;99.90
24682;DHT22;12802;53.390;-2.328;2022-07-10T13:53:09;28.70;99.90
24682;DHT22;12802;53.390;-2.328;2022-07-10T13:55:36;28.80;99.90
24682;DHT22;12802;53.390;-2.328;2022-07-10T13:58:02;29.20;99.90
24682;DHT22;12802;53.390;-2.328;2022-07-10T14:00:28;29.30;99.90
24682;DHT22;12802;53.390;-2.328;2022-07-10T14:02:54;29.30;99.90
24682;DHT22;12802;53.390;-2.328;2022-07-10T14:05:23;29.80;99.90
24682;DHT22;12802;53.390;-2.328;2022-07-10T14:07:50;30.10;99.90
24682;DHT22;12802;53.390;-2.328;2022-07-10T14:10:16;30.20;99.90
24682;DHT22;12802;53.390;-2.328;2022-07-10T14:12:42;30.50;99.90
24682;DHT22;12802;53.390;-2.328;2022-07-10T14:15:08;30.60;99.90
24682;DHT22;12802;53.390;-2.328;2022-07-10T14:17:34;30.60;99.90
24682;DHT22;12802;53.390;-2.328;2022-07-10T14:20:00;30.80;99.90
24682;DHT22;12802;53.390;-2.328;2022-07-10T14:22:26;31.00;99.90
24682;DHT22;12802;53.390;-2.328;2022-07-10T14:24:52;31.00;99.90
24682;DHT22;12802;53.390;-2.328;2022-07-10T14:27:19;31.00;99.90
24682;DHT22;12802;53.390;-2.328;2022-07-10T14:29:45;31.00;99.90
24682;DHT22;12802;53.390;-2.328;2022-07-10T14:32:11;30.90;99.90
24682;DHT22;12802;53.390;-2.328;2022-07-10T14:34:36;31.30;99.90
24682;DHT22;12802;53.390;-2.328;2022-07-10T14:37:02;31.40;99.90
24682;DHT22;12802;53.390;-2.328;2022-07-10T14:39:28;31.60;99.90
24682;DHT22;12802;53.390;-2.328;2022-07-10T14:41:54;31.40;99.90
24682;DHT22;12802;53.390;-2.328;2022-07-10T14:44:20;31.10;99.90
24682;DHT22;12802;53.390;-2.328;2022-07-10T14:46:46;31.00;99.90
24682;DHT22;12802;53.390;-2.328;2022-07-10T14:49:12;31.00;99.90
24682;DHT22;12802;53.390;-2.328;2022-07-10T14:51:38;31.20;99.90
24682;DHT22;12802;53.390;-2.328;2022-07-10T14:54:04;31.20;99.90
24682;DHT22;12802;53.390;-2.328;2022-07-10T14:56:30;31.30;99.90
24682;DHT22;12802;53.390;-2.328;2022-07-10T14:58:56;30.90;99.90
24682;DHT22;12802;53.390;-2.328;2022-07-10T15:01:22;30.90;99.90
24682;DHT22;12802;53.390;-2.328;2022-07-10T15:03:47;30.90;99.90
24682;DHT22;12802;53.390;-2.328;2022-07-10T15:06:13;30.90;99.90
24682;DHT22;12802;53.390;-2.328;2022-07-10T15:08:39;31.00;99.90
24682;DHT22;12802;53.390;-2.328;2022-07-10T15:11:05;30.70;99.90
24682;DHT22;12802;53.390;-2.328;2022-07-10T15:13:32;30.60;99.90
24682;DHT22;12802;53.390;-2.328;2022-07-10T15:15:58;30.30;99.90
24682;DHT22;12802;53.390;-2.328;2022-07-10T15:18:25;30.40;99.90
24682;DHT22;12802;53.390;-2.328;2022-07-10T15:20:51;30.30;99.90
24682;DHT22;12802;53.390;-2.328;2022-07-10T15:23:17;30.20;99.90
24682;DHT22;12802;53.390;-2.328;2022-07-10T15:25:43;30.30;99.90
24682;DHT22;12802;53.390;-2.328;2022-07-10T15:28:09;30.50;99.90
24682;DHT22;12802;53.390;-2.328;2022-07-10T15:30:37;30.10;99.90
24682;DHT22;12802;53.390;-2.328;2022-07-10T15:33:06;30.30;99.90
24682;DHT22;12802;53.390;-2.328;2022-07-10T15:35:32;29.90;99.90
24682;DHT22;12802;53.390;-2.328;2022-07-10T15:37:59;29.40;99.90
24682;DHT22;12802;53.390;-2.328;2022-07-10T15:40:29;29.70;99.90
24682;DHT22;12802;53.390;-2.328;2022-07-10T15:42:56;29.70;99.90
24682;DHT22;12802;53.390;-2.328;2022-07-10T15:45:22;29.60;99.90
24682;DHT22;12802;53.390;-2.328;2022-07-10T15:47:48;29.50;99.90
24682;DHT22;12802;53.390;-2.328;2022-07-10T15:50:14;29.50;99.90
24682;DHT22;12802;53.390;-2.328;2022-07-10T15:52:40;29.40;99.90